createdAt,value
2022-10-05T00:01:15.572Z,6.50
2022-10-05T00:03:43.165Z,5.77
2022-10-05T00:06:10.681Z,3.97
2022-10-05T00:08:38.243Z,5.30
2022-10-05T00:11:07.451Z,4.90
2022-10-05T00:13:36.245Z,4.10
2022-10-05T00:16:06.915Z,4.70
2022-10-05T00:18:34.421Z,4.97
2022-10-05T00:21:01.953Z,4.43
2022-10-05T00:23:30.985Z,7.60
2022-10-05T00:26:03.638Z,3.87
2022-10-05T00:28:31.243Z,5.50
2022-10-05T00:31:00.620Z,5.33
2022-10-05T00:33:28.583Z,5.13
2022-10-05T00:35:56.389Z,4.27
2022-10-05T00:38:24.040Z,4.30
2022-10-05T00:40:56.893Z,7.77
2022-10-05T00:43:48.444Z,4.87
2022-10-05T00:46:19.514Z,6.17
2022-10-05T00:48:49.372Z,5.27
2022-10-05T00:51:21.107Z,3.50
2022-10-05T00:53:51.347Z,4.00
2022-10-05T00:56:26.949Z,4.37
2022-10-05T00:59:01.529Z,5.63
2022-10-05T01:01:32.704Z,4.10
2022-10-05T01:04:04.954Z,5.67
2022-10-05T01:06:35.311Z,6.93
2022-10-05T01:09:08.042Z,5.73
2022-10-05T01:11:39.192Z,3.50
2022-10-05T01:14:12.430Z,4.87
2022-10-05T01:16:45.591Z,4.33
2022-10-05T01:19:21.803Z,3.17
2022-10-05T01:21:52.335Z,10.07
2022-10-05T01:24:37.689Z,5.03
2022-10-05T01:27:33.643Z,6.50
2022-10-05T01:30:04.193Z,5.33
2022-10-05T01:32:34.019Z,5.67
2022-10-05T01:35:06.178Z,3.33
2022-10-05T01:37:39.572Z,6.73
2022-10-05T01:40:08.601Z,4.67
2022-10-05T01:42:46.664Z,8.07
2022-10-05T01:45:18.133Z,4.13
2022-10-05T01:47:46.829Z,5.20
2022-10-05T01:50:18.536Z,5.47
2022-10-05T01:52:52.699Z,7.73
2022-10-05T01:55:23.751Z,3.60
2022-10-05T01:57:57.778Z,8.27
2022-10-05T02:00:25.398Z,3.27
2022-10-05T02:02:57.067Z,6.20
2022-10-05T02:05:27.137Z,4.27
2022-10-05T02:07:55.344Z,5.67
2022-10-05T02:10:25.097Z,3.83
2022-10-05T02:12:55.466Z,3.17
2022-10-05T02:15:25.130Z,3.90
2022-10-05T02:17:55.246Z,14.17
2022-10-05T02:20:24.648Z,8.53
2022-10-05T02:22:53.937Z,3.27
2022-10-05T02:25:23.203Z,5.37
2022-10-05T02:27:52.992Z,3.50
2022-10-05T02:30:21.848Z,10.87
2022-10-05T02:32:52.418Z,4.00
2022-10-05T02:35:20.839Z,3.90
2022-10-05T02:37:54.349Z,5.33
2022-10-05T02:40:27.037Z,5.57
2022-10-05T02:42:58.454Z,6.67
2022-10-05T02:45:33.472Z,8.87
2022-10-05T02:48:06.276Z,4.90
2022-10-05T02:50:37.617Z,3.87
2022-10-05T02:53:10.793Z,6.10
2022-10-05T02:55:41.544Z,6.03
2022-10-05T02:58:12.483Z,4.70
2022-10-05T03:00:44.268Z,5.10
2022-10-05T03:03:16.474Z,5.70
2022-10-05T03:05:47.514Z,8.20
2022-10-05T03:08:18.192Z,6.27
2022-10-05T03:10:50.760Z,5.07
2022-10-05T03:13:24.558Z,6.30
2022-10-05T03:15:58.676Z,4.13
2022-10-05T03:18:32.602Z,5.30
2022-10-05T03:21:03.403Z,4.80
2022-10-05T03:23:35.098Z,5.43
2022-10-05T03:26:11.400Z,4.13
2022-10-05T03:28:41.869Z,6.13
2022-10-05T03:31:15.799Z,6.53
2022-10-05T03:33:47.750Z,5.93
2022-10-05T03:36:19.149Z,7.10
2022-10-05T03:38:49.881Z,7.60
2022-10-05T03:41:18.991Z,6.43
2022-10-05T03:43:53.174Z,6.00
2022-10-05T03:46:26.383Z,7.53
2022-10-05T03:48:59.599Z,5.47
2022-10-05T03:51:30.819Z,5.37
2022-10-05T03:54:00.918Z,5.07
2022-10-05T03:56:32.353Z,5.73
2022-10-05T03:59:01.969Z,5.70
2022-10-05T04:01:39.714Z,6.10
2022-10-05T04:04:08.453Z,6.10
2022-10-05T04:06:37.655Z,6.20
2022-10-05T04:09:09.010Z,4.77
2022-10-05T04:11:38.823Z,4.70
2022-10-05T04:14:08.164Z,5.80
2022-10-05T04:16:41.281Z,4.63
2022-10-05T04:19:13.907Z,6.27
2022-10-05T04:21:44.731Z,5.80
2022-10-05T04:24:14.279Z,5.47
2022-10-05T04:26:46.858Z,6.63
2022-10-05T04:29:17.375Z,3.97
2022-10-05T04:31:58.075Z,6.47
2022-10-05T04:34:37.545Z,5.77
2022-10-05T04:37:07.961Z,5.37
2022-10-05T04:39:38.576Z,4.47
2022-10-05T04:42:10.347Z,9.60
2022-10-05T04:44:49.249Z,5.23
2022-10-05T04:47:27.803Z,6.57
2022-10-05T04:50:07.861Z,8.03
2022-10-05T04:52:39.357Z,5.10
2022-10-05T04:55:13.718Z,7.13
2022-10-05T04:57:42.950Z,6.80
2022-10-05T05:00:13.887Z,5.00
2022-10-05T05:02:52.874Z,7.30
2022-10-05T05:05:27.005Z,8.60
2022-10-05T05:07:57.983Z,5.17
2022-10-05T05:10:49.571Z,4.57
2022-10-05T05:13:23.349Z,4.83
2022-10-05T05:15:53.092Z,5.30
2022-10-05T05:18:31.331Z,5.43
2022-10-05T05:21:00.966Z,6.47
2022-10-05T05:23:33.450Z,8.93
2022-10-05T05:26:04.279Z,6.60
2022-10-05T05:28:36.867Z,8.47
2022-10-05T05:31:10.394Z,8.20
2022-10-05T05:33:44.765Z,9.23
2022-10-05T05:36:22.985Z,6.23
2022-10-05T05:38:55.237Z,7.80
2022-10-05T05:41:26.827Z,8.43
2022-10-05T05:43:59.748Z,7.97
2022-10-05T05:46:51.171Z,7.10
2022-10-05T05:49:19.726Z,6.37
2022-10-05T05:51:50.296Z,8.77
2022-10-05T05:54:28.987Z,8.37
2022-10-05T05:56:58.502Z,7.10
2022-10-05T05:59:27.760Z,7.17
2022-10-05T06:01:57.611Z,8.23
2022-10-05T06:04:40.863Z,9.83
2022-10-05T06:07:12.223Z,8.87
2022-10-05T06:09:41.248Z,8.07
2022-10-05T06:12:11.984Z,7.60
2022-10-05T06:14:43.235Z,10.90
2022-10-05T06:17:13.174Z,9.90
2022-10-05T06:19:42.919Z,7.10
2022-10-05T06:22:15.490Z,8.20
2022-10-05T06:24:50.710Z,7.40
2022-10-05T06:27:25.527Z,8.13
2022-10-05T06:29:59.819Z,7.93
2022-10-05T06:32:29.397Z,8.70
2022-10-05T06:35:03.721Z,12.23
2022-10-05T06:37:38.624Z,10.13
2022-10-05T06:40:12.074Z,8.73
2022-10-05T06:42:48.039Z,7.13
2022-10-05T06:45:20.038Z,8.00
2022-10-05T06:47:50.737Z,9.80
2022-10-05T06:50:28.251Z,8.30
2022-10-05T06:53:03.722Z,8.30
2022-10-05T06:55:35.381Z,8.73
2022-10-05T06:58:19.119Z,9.40
2022-10-05T07:00:50.049Z,8.97
2022-10-05T07:03:23.537Z,8.83
2022-10-05T07:05:58.924Z,8.63
2022-10-05T07:08:30.635Z,9.43
2022-10-05T07:11:05.639Z,9.80
2022-10-05T07:13:54.170Z,8.30
2022-10-05T07:16:25.704Z,9.20
2022-10-05T07:18:57.682Z,7.13
2022-10-05T07:21:32.742Z,12.33
2022-10-05T07:24:03.571Z,9.00
2022-10-05T07:26:33.956Z,8.10
2022-10-05T07:29:17.007Z,10.33
2022-10-05T07:31:47.480Z,8.17
2022-10-05T07:34:20.797Z,7.73
2022-10-05T07:37:09.701Z,9.20
2022-10-05T07:39:59.210Z,11.63
2022-10-05T07:42:32.577Z,7.10
2022-10-05T07:45:04.615Z,7.33
2022-10-05T07:47:36.364Z,6.57
2022-10-05T07:50:07.636Z,8.60
2022-10-05T07:52:38.723Z,6.78
2022-10-05T07:55:11.063Z,8.85
2022-10-05T07:57:40.296Z,5.57
2022-10-05T08:00:11.384Z,5.05
2022-10-05T08:02:44.477Z,5.57
2022-10-05T08:05:14.269Z,5.13
2022-10-05T08:07:43.067Z,4.75
2022-10-05T08:10:17.727Z,7.15
2022-10-05T08:12:53.445Z,5.82
2022-10-05T08:15:23.367Z,5.13
2022-10-05T08:17:53.735Z,5.65
2022-10-05T08:20:29.289Z,6.32
2022-10-05T08:23:00.342Z,6.28
2022-10-05T08:25:31.142Z,5.90
2022-10-05T08:28:02.742Z,6.20
2022-10-05T08:30:32.174Z,6.30
2022-10-05T08:33:03.759Z,7.65
2022-10-05T08:35:33.959Z,5.68
2022-10-05T08:38:03.880Z,6.47
2022-10-05T08:40:59.570Z,7.80
2022-10-05T08:43:35.978Z,9.73
2022-10-05T08:46:22.495Z,8.33
2022-10-05T08:49:09.830Z,8.87
2022-10-05T08:51:54.918Z,10.30
2022-10-05T08:54:40.233Z,9.10
2022-10-05T08:57:22.517Z,8.33
2022-10-05T09:00:11.368Z,7.50
2022-10-05T09:02:48.529Z,14.07
2022-10-05T09:05:24.912Z,6.03
2022-10-05T09:08:08.624Z,6.83
2022-10-05T09:10:50.973Z,5.50
2022-10-05T09:13:26.904Z,5.50
2022-10-05T09:16:00.630Z,5.70
2022-10-05T09:18:46.576Z,6.03
2022-10-05T09:21:19.376Z,5.77
2022-10-05T09:23:49.986Z,9.53
2022-10-05T09:26:42.195Z,7.67
2022-10-05T09:29:19.021Z,5.03
2022-10-05T09:31:57.762Z,5.20
2022-10-05T09:34:31.800Z,5.35
2022-10-05T09:37:17.140Z,6.57
2022-10-05T09:40:01.507Z,4.43
2022-10-05T09:42:49.090Z,5.93
2022-10-05T09:45:29.451Z,4.65
2022-10-05T09:48:14.934Z,5.50
2022-10-05T09:51:00.245Z,4.47
2022-10-05T09:53:44.731Z,5.10
2022-10-05T09:56:22.634Z,4.32
2022-10-05T09:59:07.485Z,6.32
2022-10-05T10:01:47.106Z,5.05
2022-10-05T10:04:29.690Z,6.88
2022-10-05T10:07:18.999Z,4.70
2022-10-05T10:09:53.816Z,4.88
2022-10-05T10:12:34.183Z,4.25
2022-10-05T10:15:20.063Z,4.85
2022-10-05T10:17:56.595Z,4.03
2022-10-05T10:20:36.048Z,4.27
2022-10-05T10:23:23.322Z,4.47
2022-10-05T10:26:17.539Z,3.42
2022-10-05T10:29:02.677Z,3.80
2022-10-05T10:31:39.440Z,3.58
2022-10-05T10:34:27.603Z,3.58
2022-10-05T10:37:16.266Z,3.50
2022-10-05T10:39:52.845Z,3.03
2022-10-05T10:42:29.242Z,2.92
2022-10-05T10:45:14.568Z,3.78
2022-10-05T10:47:51.514Z,3.75
2022-10-05T10:50:29.107Z,3.95
2022-10-05T10:53:02.685Z,3.80
2022-10-05T10:55:34.679Z,2.83
2022-10-05T10:58:16.439Z,2.70
2022-10-05T11:00:48.624Z,3.17
2022-10-05T11:03:39.339Z,2.33
2022-10-05T11:06:21.639Z,3.55
2022-10-05T11:08:55.610Z,2.92
2022-10-05T11:11:40.016Z,3.28
2022-10-05T11:14:21.692Z,7.05
2022-10-05T11:17:04.026Z,3.00
2022-10-05T11:20:02.880Z,4.63
2022-10-05T11:22:40.085Z,3.88
2022-10-05T11:25:31.395Z,2.53
2022-10-05T11:28:09.641Z,7.18
2022-10-05T11:30:55.209Z,2.00
2022-10-05T11:33:37.698Z,2.42
2022-10-05T11:36:22.347Z,2.53
2022-10-05T11:39:08.953Z,2.67
2022-10-05T11:41:50.390Z,3.10
2022-10-05T11:44:50.498Z,4.57
2022-10-05T11:47:20.882Z,2.00
2022-10-05T11:49:49.567Z,3.53
2022-10-05T11:52:19.763Z,2.60
2022-10-05T11:55:11.981Z,2.72
2022-10-05T11:57:43.580Z,3.40
2022-10-05T12:00:14.824Z,3.65
2022-10-05T12:03:05.968Z,3.25
2022-10-05T12:05:37.548Z,3.28
2022-10-05T12:08:12.010Z,3.53
2022-10-05T12:10:45.641Z,3.45
2022-10-05T12:13:19.373Z,2.38
2022-10-05T12:15:51.273Z,2.08
2022-10-05T12:18:21.919Z,1.65
2022-10-05T12:20:53.314Z,1.48
2022-10-05T12:23:23.215Z,1.70
2022-10-05T12:25:54.674Z,2.13
2022-10-05T12:28:25.557Z,1.27
2022-10-05T12:31:08.887Z,1.30
2022-10-05T12:33:41.153Z,1.95
2022-10-05T12:36:12.338Z,3.35
2022-10-05T12:38:43.115Z,1.08
2022-10-05T12:41:19.232Z,2.58
2022-10-05T12:43:51.523Z,3.80
2022-10-05T12:46:25.612Z,2.35
2022-10-05T12:48:58.729Z,1.77
2022-10-05T12:51:32.988Z,4.72
2022-10-05T12:54:05.124Z,1.20
2022-10-05T12:56:38.485Z,4.15
2022-10-05T12:59:14.245Z,1.20
2022-10-05T13:01:43.551Z,1.20
2022-10-05T13:04:17.343Z,1.25
2022-10-05T13:06:48.168Z,2.15
2022-10-05T13:09:19.312Z,1.00
2022-10-05T13:11:49.737Z,1.30
2022-10-05T13:14:22.515Z,1.30
2022-10-05T13:16:56.630Z,3.28
2022-10-05T13:19:31.982Z,3.05
2022-10-05T13:22:05.547Z,1.38
2022-10-05T13:24:37.034Z,1.55
2022-10-05T13:27:09.460Z,3.25
2022-10-05T13:29:40.389Z,1.75
2022-10-05T13:32:15.162Z,3.30
2022-10-05T13:34:45.862Z,2.38
2022-10-05T13:37:18.335Z,1.20
2022-10-05T13:39:56.253Z,1.42
2022-10-05T13:42:29.729Z,4.82
2022-10-05T13:44:59.057Z,2.50
2022-10-05T13:47:31.304Z,4.05
2022-10-05T13:50:00.834Z,1.33
2022-10-05T13:52:31.605Z,1.30
2022-10-05T13:55:01.310Z,1.30
2022-10-05T13:57:35.971Z,0.95
2022-10-05T14:00:04.933Z,1.23
2022-10-05T14:02:36.606Z,0.85
2022-10-05T14:05:14.869Z,4.57
2022-10-05T14:07:49.545Z,2.53
2022-10-05T14:10:31.472Z,3.53
2022-10-05T14:13:00.732Z,3.03
2022-10-05T14:15:30.239Z,1.42
2022-10-05T14:17:58.028Z,1.65
2022-10-05T14:20:26.408Z,4.35
2022-10-05T14:22:58.308Z,4.22
2022-10-05T14:25:26.000Z,1.67
2022-10-05T14:27:56.925Z,4.28
2022-10-05T14:30:26.733Z,1.50
2022-10-05T14:32:56.977Z,0.80
2022-10-05T14:35:26.455Z,1.35
2022-10-05T14:37:57.184Z,1.10
2022-10-05T14:40:27.018Z,1.00
2022-10-05T14:42:54.605Z,2.05
2022-10-05T14:45:23.672Z,1.88
2022-10-05T14:47:53.683Z,1.00
2022-10-05T14:50:26.060Z,0.60
2022-10-05T14:53:14.204Z,0.85
2022-10-05T14:55:56.641Z,0.95
2022-10-05T14:58:34.996Z,1.15
2022-10-05T15:01:04.687Z,1.15
2022-10-05T15:03:46.715Z,1.70
2022-10-05T15:06:17.101Z,2.42
2022-10-05T15:08:51.078Z,2.10
2022-10-05T15:11:24.512Z,2.05
2022-10-05T15:13:52.636Z,1.17
2022-10-05T15:16:22.008Z,1.35
2022-10-05T15:18:54.649Z,1.88
2022-10-05T15:21:31.391Z,2.83
2022-10-05T15:24:01.851Z,5.38
2022-10-05T15:26:36.279Z,1.27
2022-10-05T15:29:10.490Z,1.60
2022-10-05T15:31:41.558Z,1.00
2022-10-05T15:34:15.292Z,1.05
2022-10-05T15:36:45.214Z,2.20
2022-10-05T15:39:17.346Z,2.13
2022-10-05T15:42:00.257Z,1.40
2022-10-05T15:44:36.369Z,3.78
2022-10-05T15:47:06.871Z,1.42
2022-10-05T15:49:39.431Z,1.27
2022-10-05T15:52:17.595Z,2.25
2022-10-05T15:55:05.728Z,1.92
2022-10-05T15:57:39.115Z,3.97
2022-10-05T16:00:11.298Z,1.30
2022-10-05T16:02:42.368Z,1.10
2022-10-05T16:05:56.946Z,2.28
2022-10-05T16:08:48.132Z,2.67
2022-10-05T16:11:19.257Z,2.85
2022-10-05T16:13:51.470Z,2.08
2022-10-05T16:16:22.161Z,3.75
2022-10-05T16:18:57.579Z,1.85
2022-10-05T16:21:30.372Z,2.00
2022-10-05T16:24:10.493Z,1.20
2022-10-05T16:26:45.813Z,1.42
2022-10-05T16:29:16.155Z,1.60
2022-10-05T16:31:47.179Z,1.75
2022-10-05T16:34:20.496Z,2.25
2022-10-05T16:36:52.232Z,1.50
2022-10-05T16:39:26.248Z,2.25
2022-10-05T16:41:57.480Z,1.40
2022-10-05T16:44:31.348Z,2.38
2022-10-05T16:47:00.424Z,2.38
2022-10-05T16:49:33.826Z,1.20
2022-10-05T16:52:02.096Z,3.33
2022-10-05T16:54:32.572Z,2.08
2022-10-05T16:57:04.138Z,1.27
2022-10-05T16:59:46.081Z,3.00
2022-10-05T17:02:19.164Z,3.50
2022-10-05T17:04:56.624Z,4.78
2022-10-05T17:07:34.980Z,3.60
2022-10-05T17:10:13.643Z,2.03
2022-10-05T17:12:46.017Z,3.33
2022-10-05T17:15:20.558Z,5.18
2022-10-05T17:17:57.635Z,4.20
2022-10-05T17:20:32.032Z,3.00
2022-10-05T17:23:03.975Z,1.55
2022-10-05T17:25:40.058Z,4.03
2022-10-05T17:28:17.940Z,2.40
2022-10-05T17:30:51.351Z,3.38
2022-10-05T17:33:20.629Z,2.13
2022-10-05T17:35:58.177Z,1.40
2022-10-05T17:38:42.224Z,3.67
2022-10-05T17:41:17.881Z,5.97
2022-10-05T17:44:03.722Z,3.20
2022-10-05T17:46:38.561Z,2.28
2022-10-05T17:49:13.635Z,4.10
2022-10-05T17:52:18.546Z,5.53
2022-10-05T17:55:20.502Z,2.37
2022-10-05T17:57:49.393Z,2.20
2022-10-05T18:00:35.478Z,5.85
2022-10-05T18:03:27.864Z,3.53
2022-10-05T18:06:10.225Z,4.70
2022-10-05T18:08:38.584Z,3.37
2022-10-05T18:11:17.276Z,2.97
2022-10-05T18:13:50.098Z,3.50
2022-10-05T18:16:32.548Z,2.23
2022-10-05T18:19:00.188Z,4.13
2022-10-05T18:21:34.360Z,7.03
2022-10-05T18:24:02.979Z,4.03
2022-10-05T18:26:37.967Z,3.03
2022-10-05T18:29:15.334Z,4.00
2022-10-05T18:31:47.920Z,2.93
2022-10-05T18:34:21.074Z,7.33
2022-10-05T18:36:57.014Z,5.33
2022-10-05T18:39:33.017Z,3.30
2022-10-05T18:42:08.364Z,3.50
2022-10-05T18:44:40.667Z,2.93
2022-10-05T18:47:13.364Z,2.70
2022-10-05T18:49:48.790Z,2.73
2022-10-05T18:52:20.152Z,3.13
2022-10-05T18:54:54.176Z,4.60
2022-10-05T18:57:34.273Z,3.40
2022-10-05T19:00:07.855Z,4.07
2022-10-05T19:02:37.611Z,3.43
2022-10-05T19:05:29.185Z,3.73
2022-10-05T19:08:01.725Z,5.97
2022-10-05T19:10:33.924Z,6.60
2022-10-05T19:13:09.951Z,4.23
2022-10-05T19:15:44.129Z,3.07
2022-10-05T19:18:18.764Z,3.10
2022-10-05T19:20:49.742Z,4.40
2022-10-05T19:23:24.164Z,3.33
2022-10-05T19:25:53.103Z,4.43
2022-10-05T19:28:26.004Z,3.00
2022-10-05T19:31:10.584Z,7.13
2022-10-05T19:33:44.546Z,4.23
2022-10-05T19:36:18.744Z,3.87
2022-10-05T19:38:55.193Z,6.83
2022-10-05T19:41:27.355Z,2.70
2022-10-05T19:44:03.732Z,4.00
2022-10-05T19:46:39.923Z,6.47
2022-10-05T19:49:09.721Z,3.70
2022-10-05T19:51:47.223Z,4.93
2022-10-05T19:54:15.820Z,3.93
2022-10-05T19:56:49.389Z,3.43
2022-10-05T19:59:19.395Z,5.30
2022-10-05T20:01:50.535Z,4.47
2022-10-05T20:04:32.460Z,3.60
2022-10-05T20:07:00.351Z,3.50
2022-10-05T20:09:27.792Z,6.20
2022-10-05T20:11:56.615Z,3.10
2022-10-05T20:14:30.575Z,4.63
2022-10-05T20:17:43.447Z,4.97
2022-10-05T20:20:31.937Z,4.73
2022-10-05T20:23:14.384Z,3.20
2022-10-05T20:25:42.150Z,4.13
2022-10-05T20:28:10.004Z,5.37
2022-10-05T20:30:37.835Z,2.97
2022-10-05T20:33:11.631Z,3.63
2022-10-05T20:35:39.325Z,4.73
2022-10-05T20:38:07.294Z,5.43
2022-10-05T20:40:35.332Z,6.03
2022-10-05T20:43:02.968Z,6.43
2022-10-05T20:45:30.589Z,3.93
2022-10-05T20:47:58.298Z,3.80
2022-10-05T20:50:27.583Z,3.67
2022-10-05T20:52:55.161Z,3.53
2022-10-05T20:55:22.806Z,3.70
2022-10-05T20:57:50.434Z,5.30
2022-10-05T21:00:18.091Z,5.93
2022-10-05T21:02:46.794Z,9.57
2022-10-05T21:05:14.556Z,6.00
2022-10-05T21:07:43.418Z,3.50
2022-10-05T21:10:11.018Z,3.73
2022-10-05T21:12:38.570Z,4.10
2022-10-05T21:15:06.780Z,5.80
2022-10-05T21:17:35.148Z,3.87
2022-10-05T21:20:02.693Z,4.10
2022-10-05T21:22:30.519Z,5.43
2022-10-05T21:24:59.376Z,3.97
2022-10-05T21:27:26.835Z,6.20
2022-10-05T21:29:54.417Z,4.87
2022-10-05T21:32:22.114Z,6.33
2022-10-05T21:34:49.542Z,4.77
2022-10-05T21:37:18.116Z,4.03
2022-10-05T21:39:45.805Z,3.70
2022-10-05T21:42:15.009Z,3.80
2022-10-05T21:44:42.475Z,4.80
2022-10-05T21:47:10.049Z,4.83
2022-10-05T21:49:37.538Z,6.43
2022-10-05T21:52:05.831Z,5.27
2022-10-05T21:54:33.692Z,4.63
2022-10-05T21:57:01.098Z,4.20
2022-10-05T21:59:32.320Z,4.73
2022-10-05T22:01:59.728Z,6.27
2022-10-05T22:04:27.234Z,4.13
2022-10-05T22:06:55.060Z,3.70
2022-10-05T22:09:22.458Z,5.60
2022-10-05T22:11:50.197Z,5.30
2022-10-05T22:14:17.607Z,5.73
2022-10-05T22:16:46.639Z,4.80
2022-10-05T22:19:15.532Z,5.03
2022-10-05T22:21:42.975Z,4.17
2022-10-05T22:24:11.340Z,3.63
2022-10-05T22:26:38.902Z,5.13
2022-10-05T22:29:06.448Z,5.43
2022-10-05T22:31:34.040Z,5.27
2022-10-05T22:34:02.844Z,4.47
2022-10-05T22:36:30.285Z,4.03
2022-10-05T22:38:57.717Z,5.23
2022-10-05T22:41:25.098Z,7.33
2022-10-05T22:43:52.695Z,5.30
2022-10-05T22:46:20.247Z,5.23
2022-10-05T22:48:48.021Z,4.20
2022-10-05T22:51:16.957Z,4.73
2022-10-05T22:53:44.451Z,5.40
2022-10-05T22:56:13.207Z,5.33
2022-10-05T22:58:40.958Z,5.30
2022-10-05T23:01:09.191Z,6.23
2022-10-05T23:03:37.053Z,6.93
2022-10-05T23:06:05.645Z,3.73
2022-10-05T23:08:35.104Z,4.60
2022-10-05T23:11:03.273Z,4.20
2022-10-05T23:13:30.825Z,5.40
2022-10-05T23:15:58.341Z,6.33
2022-10-05T23:18:26.494Z,3.53
2022-10-05T23:20:55.080Z,4.60
2022-10-05T23:23:22.880Z,3.73
2022-10-05T23:25:51.994Z,3.73
2022-10-05T23:28:19.591Z,4.00
2022-10-05T23:30:47.249Z,4.07
2022-10-05T23:33:14.810Z,3.37
2022-10-05T23:35:42.263Z,2.50
2022-10-05T23:38:09.762Z,3.50
2022-10-05T23:40:37.235Z,4.40
2022-10-05T23:43:06.582Z,5.37
2022-10-05T23:45:34.131Z,3.13
2022-10-05T23:48:01.626Z,3.63
2022-10-05T23:50:29.115Z,5.47
2022-10-05T23:52:56.584Z,3.37
2022-10-05T23:55:24.033Z,2.40
2022-10-05T23:57:51.439Z,2.60
